sensor_id;sensor_type;location;lat;lon;timestamp;P1;durP1;ratioP1;P2;durP2;ratioP2
5032;SDS011;2535;49.888;8.942;2023-09-07T00:00:20;13.37;;;2.30;;
5032;SDS011;2535;49.888;8.942;2023-09-07T00:02:46;13.17;;;2.67;;
5032;SDS011;2535;49.888;8.942;2023-09-07T00:05:12;13.13;;;2.30;;
5032;SDS011;2535;49.888;8.942;2023-09-07T00:07:38;14.27;;;2.50;;
5032;SDS011;2535;49.888;8.942;2023-09-07T00:10:04;12.13;;;2.23;;
5032;SDS011;2535;49.888;8.942;2023-09-07T00:12:30;11.47;;;1.63;;
5032;SDS011;2535;49.888;8.942;2023-09-07T00:14:57;12.33;;;2.03;;
5032;SDS011;2535;49.888;8.942;2023-09-07T00:17:23;13.43;;;2.67;;
5032;SDS011;2535;49.888;8.942;2023-09-07T00:19:49;14.57;;;2.33;;
5032;SDS011;2535;49.888;8.942;2023-09-07T00:22:16;12.00;;;1.80;;
5032;SDS011;2535;49.888;8.942;2023-09-07T00:24:42;12.53;;;2.20;;
5032;SDS011;2535;49.888;8.942;2023-09-07T00:27:08;12.93;;;2.20;;
5032;SDS011;2535;49.888;8.942;2023-09-07T00:29:36;12.90;;;2.43;;
5032;SDS011;2535;49.888;8.942;2023-09-07T00:32:02;12.70;;;1.90;;
5032;SDS011;2535;49.888;8.942;2023-09-07T00:34:28;13.70;;;2.70;;
5032;SDS011;2535;49.888;8.942;2023-09-07T00:36:54;12.37;;;2.20;;
5032;SDS011;2535;49.888;8.942;2023-09-07T00:39:20;13.67;;;2.73;;
5032;SDS011;2535;49.888;8.942;2023-09-07T00:41:46;12.90;;;2.10;;
5032;SDS011;2535;49.888;8.942;2023-09-07T00:44:12;14.83;;;2.40;;
5032;SDS011;2535;49.888;8.942;2023-09-07T00:46:38;12.73;;;1.93;;
5032;SDS011;2535;49.888;8.942;2023-09-07T00:49:04;16.00;;;2.80;;
5032;SDS011;2535;49.888;8.942;2023-09-07T00:51:30;15.40;;;2.13;;
5032;SDS011;2535;49.888;8.942;2023-09-07T00:53:56;13.27;;;2.57;;
5032;SDS011;2535;49.888;8.942;2023-09-07T00:56:23;12.20;;;2.00;;
5032;SDS011;2535;49.888;8.942;2023-09-07T00:58:50;13.60;;;2.40;;
5032;SDS011;2535;49.888;8.942;2023-09-07T01:01:16;17.73;;;2.93;;
5032;SDS011;2535;49.888;8.942;2023-09-07T01:03:42;13.60;;;2.40;;
5032;SDS011;2535;49.888;8.942;2023-09-07T01:06:16;12.57;;;2.43;;
5032;SDS011;2535;49.888;8.942;2023-09-07T01:08:44;11.90;;;1.80;;
5032;SDS011;2535;49.888;8.942;2023-09-07T01:11:15;14.70;;;2.60;;
5032;SDS011;2535;49.888;8.942;2023-09-07T01:13:41;14.20;;;2.20;;
5032;SDS011;2535;49.888;8.942;2023-09-07T01:16:07;17.63;;;2.83;;
5032;SDS011;2535;49.888;8.942;2023-09-07T01:18:33;12.93;;;2.27;;
5032;SDS011;2535;49.888;8.942;2023-09-07T01:21:03;12.67;;;2.20;;
5032;SDS011;2535;49.888;8.942;2023-09-07T01:23:29;12.53;;;2.17;;
5032;SDS011;2535;49.888;8.942;2023-09-07T01:25:55;16.13;;;3.10;;
5032;SDS011;2535;49.888;8.942;2023-09-07T01:28:21;13.30;;;2.53;;
5032;SDS011;2535;49.888;8.942;2023-09-07T01:30:47;15.80;;;3.03;;
5032;SDS011;2535;49.888;8.942;2023-09-07T01:33:13;16.40;;;2.83;;
5032;SDS011;2535;49.888;8.942;2023-09-07T01:35:39;14.20;;;2.47;;
5032;SDS011;2535;49.888;8.942;2023-09-07T01:38:06;13.70;;;2.40;;
5032;SDS011;2535;49.888;8.942;2023-09-07T01:40:31;15.97;;;3.77;;
5032;SDS011;2535;49.888;8.942;2023-09-07T01:42:57;23.07;;;3.30;;
5032;SDS011;2535;49.888;8.942;2023-09-07T01:45:23;16.30;;;3.93;;
5032;SDS011;2535;49.888;8.942;2023-09-07T01:47:49;14.33;;;2.83;;
5032;SDS011;2535;49.888;8.942;2023-09-07T01:50:17;17.00;;;3.37;;
5032;SDS011;2535;49.888;8.942;2023-09-07T01:52:45;14.20;;;3.40;;
5032;SDS011;2535;49.888;8.942;2023-09-07T01:55:11;17.93;;;2.93;;
5032;SDS011;2535;49.888;8.942;2023-09-07T01:57:37;15.30;;;2.80;;
5032;SDS011;2535;49.888;8.942;2023-09-07T02:00:03;17.43;;;3.77;;
5032;SDS011;2535;49.888;8.942;2023-09-07T02:02:30;16.23;;;3.67;;
5032;SDS011;2535;49.888;8.942;2023-09-07T02:04:56;14.83;;;3.87;;
5032;SDS011;2535;49.888;8.942;2023-09-07T02:07:22;14.83;;;3.50;;
5032;SDS011;2535;49.888;8.942;2023-09-07T02:09:48;15.63;;;3.43;;
5032;SDS011;2535;49.888;8.942;2023-09-07T02:12:14;17.20;;;4.47;;
5032;SDS011;2535;49.888;8.942;2023-09-07T02:14:40;15.57;;;3.60;;
5032;SDS011;2535;49.888;8.942;2023-09-07T02:17:06;15.07;;;3.40;;
5032;SDS011;2535;49.888;8.942;2023-09-07T02:19:32;15.73;;;3.20;;
5032;SDS011;2535;49.888;8.942;2023-09-07T02:21:58;14.67;;;2.97;;
5032;SDS011;2535;49.888;8.942;2023-09-07T02:24:23;14.43;;;3.20;;
5032;SDS011;2535;49.888;8.942;2023-09-07T02:26:49;15.40;;;2.90;;
5032;SDS011;2535;49.888;8.942;2023-09-07T02:29:15;14.77;;;2.87;;
5032;SDS011;2535;49.888;8.942;2023-09-07T02:31:41;15.23;;;3.23;;
5032;SDS011;2535;49.888;8.942;2023-09-07T02:34:07;14.07;;;2.17;;
5032;SDS011;2535;49.888;8.942;2023-09-07T02:36:33;19.90;;;3.83;;
5032;SDS011;2535;49.888;8.942;2023-09-07T02:39:02;17.00;;;3.90;;
5032;SDS011;2535;49.888;8.942;2023-09-07T02:41:28;15.67;;;3.10;;
5032;SDS011;2535;49.888;8.942;2023-09-07T02:43:54;14.33;;;2.53;;
5032;SDS011;2535;49.888;8.942;2023-09-07T02:46:20;16.20;;;3.33;;
5032;SDS011;2535;49.888;8.942;2023-09-07T02:48:46;15.83;;;2.80;;
5032;SDS011;2535;49.888;8.942;2023-09-07T02:51:12;16.50;;;3.00;;
5032;SDS011;2535;49.888;8.942;2023-09-07T02:53:38;14.73;;;2.93;;
5032;SDS011;2535;49.888;8.942;2023-09-07T02:56:04;17.63;;;3.30;;
5032;SDS011;2535;49.888;8.942;2023-09-07T02:58:32;13.80;;;2.77;;
5032;SDS011;2535;49.888;8.942;2023-09-07T03:00:58;17.67;;;3.37;;
5032;SDS011;2535;49.888;8.942;2023-09-07T03:03:24;16.10;;;3.40;;
5032;SDS011;2535;49.888;8.942;2023-09-07T03:05:50;14.70;;;2.73;;
5032;SDS011;2535;49.888;8.942;2023-09-07T03:08:16;16.07;;;2.97;;
5032;SDS011;2535;49.888;8.942;2023-09-07T03:10:42;17.03;;;2.70;;
5032;SDS011;2535;49.888;8.942;2023-09-07T03:13:09;16.60;;;2.60;;
5032;SDS011;2535;49.888;8.942;2023-09-07T03:15:35;13.90;;;2.47;;
5032;SDS011;2535;49.888;8.942;2023-09-07T03:18:01;12.87;;;2.13;;
5032;SDS011;2535;49.888;8.942;2023-09-07T03:20:27;17.93;;;3.20;;
5032;SDS011;2535;49.888;8.942;2023-09-07T03:22:54;16.20;;;3.33;;
5032;SDS011;2535;49.888;8.942;2023-09-07T03:25:21;17.27;;;3.40;;
5032;SDS011;2535;49.888;8.942;2023-09-07T03:27:47;15.77;;;3.03;;
5032;SDS011;2535;49.888;8.942;2023-09-07T03:30:13;13.80;;;2.40;;
5032;SDS011;2535;49.888;8.942;2023-09-07T03:32:38;12.97;;;2.17;;
5032;SDS011;2535;49.888;8.942;2023-09-07T03:35:04;13.27;;;2.33;;
5032;SDS011;2535;49.888;8.942;2023-09-07T03:37:33;13.90;;;2.20;;
5032;SDS011;2535;49.888;8.942;2023-09-07T03:39:59;16.10;;;2.73;;
5032;SDS011;2535;49.888;8.942;2023-09-07T03:42:25;15.50;;;2.57;;
5032;SDS011;2535;49.888;8.942;2023-09-07T03:44:51;13.80;;;2.20;;
5032;SDS011;2535;49.888;8.942;2023-09-07T03:47:17;15.83;;;2.40;;
5032;SDS011;2535;49.888;8.942;2023-09-07T03:49:43;13.20;;;2.20;;
5032;SDS011;2535;49.888;8.942;2023-09-07T03:52:09;15.70;;;3.20;;
5032;SDS011;2535;49.888;8.942;2023-09-07T03:54:36;12.90;;;2.20;;
5032;SDS011;2535;49.888;8.942;2023-09-07T03:57:02;13.33;;;2.60;;
5032;SDS011;2535;49.888;8.942;2023-09-07T03:59:29;14.93;;;3.13;;
5032;SDS011;2535;49.888;8.942;2023-09-07T04:01:55;14.67;;;3.03;;
5032;SDS011;2535;49.888;8.942;2023-09-07T04:04:21;13.43;;;2.57;;
5032;SDS011;2535;49.888;8.942;2023-09-07T04:06:47;14.00;;;2.70;;
5032;SDS011;2535;49.888;8.942;2023-09-07T04:09:13;15.73;;;2.10;;
5032;SDS011;2535;49.888;8.942;2023-09-07T04:11:39;14.00;;;2.60;;
5032;SDS011;2535;49.888;8.942;2023-09-07T04:14:05;13.83;;;2.33;;
5032;SDS011;2535;49.888;8.942;2023-09-07T04:16:31;15.27;;;2.30;;
5032;SDS011;2535;49.888;8.942;2023-09-07T04:18:57;13.70;;;2.10;;
5032;SDS011;2535;49.888;8.942;2023-09-07T04:21:23;19.90;;;2.40;;
5032;SDS011;2535;49.888;8.942;2023-09-07T04:23:49;14.93;;;2.63;;
5032;SDS011;2535;49.888;8.942;2023-09-07T04:26:15;14.53;;;2.17;;
5032;SDS011;2535;49.888;8.942;2023-09-07T04:28:41;13.40;;;2.63;;
5032;SDS011;2535;49.888;8.942;2023-09-07T04:31:07;16.13;;;2.87;;
5032;SDS011;2535;49.888;8.942;2023-09-07T04:33:33;16.43;;;3.10;;
5032;SDS011;2535;49.888;8.942;2023-09-07T04:36:11;13.57;;;2.90;;
5032;SDS011;2535;49.888;8.942;2023-09-07T04:38:38;13.90;;;2.47;;
5032;SDS011;2535;49.888;8.942;2023-09-07T04:41:08;16.47;;;3.27;;
5032;SDS011;2535;49.888;8.942;2023-09-07T04:43:34;14.27;;;2.70;;
5032;SDS011;2535;49.888;8.942;2023-09-07T04:46:00;14.20;;;2.40;;
5032;SDS011;2535;49.888;8.942;2023-09-07T04:48:26;14.20;;;2.90;;
5032;SDS011;2535;49.888;8.942;2023-09-07T04:51:02;14.33;;;2.30;;
5032;SDS011;2535;49.888;8.942;2023-09-07T04:53:28;14.60;;;2.70;;
5032;SDS011;2535;49.888;8.942;2023-09-07T04:55:54;15.90;;;3.57;;
5032;SDS011;2535;49.888;8.942;2023-09-07T04:58:20;15.70;;;2.57;;
5032;SDS011;2535;49.888;8.942;2023-09-07T05:00:46;16.33;;;3.23;;
5032;SDS011;2535;49.888;8.942;2023-09-07T05:03:12;14.00;;;2.53;;
5032;SDS011;2535;49.888;8.942;2023-09-07T05:05:38;17.50;;;3.43;;
5032;SDS011;2535;49.888;8.942;2023-09-07T05:08:05;13.00;;;2.70;;
5032;SDS011;2535;49.888;8.942;2023-09-07T05:10:34;13.87;;;2.67;;
5032;SDS011;2535;49.888;8.942;2023-09-07T05:13:00;14.30;;;2.10;;
5032;SDS011;2535;49.888;8.942;2023-09-07T05:15:26;13.20;;;2.20;;
5032;SDS011;2535;49.888;8.942;2023-09-07T05:17:53;15.37;;;2.60;;
5032;SDS011;2535;49.888;8.942;2023-09-07T05:20:19;15.53;;;3.00;;
5032;SDS011;2535;49.888;8.942;2023-09-07T05:22:45;12.90;;;2.30;;
5032;SDS011;2535;49.888;8.942;2023-09-07T05:25:11;13.43;;;2.33;;
5032;SDS011;2535;49.888;8.942;2023-09-07T05:27:37;15.60;;;2.83;;
5032;SDS011;2535;49.888;8.942;2023-09-07T05:30:04;14.97;;;2.90;;
5032;SDS011;2535;49.888;8.942;2023-09-07T05:32:30;13.40;;;2.57;;
5032;SDS011;2535;49.888;8.942;2023-09-07T05:34:56;12.77;;;2.30;;
5032;SDS011;2535;49.888;8.942;2023-09-07T05:37:22;13.47;;;2.17;;
5032;SDS011;2535;49.888;8.942;2023-09-07T05:39:48;14.20;;;2.17;;
5032;SDS011;2535;49.888;8.942;2023-09-07T05:42:14;13.33;;;2.37;;
5032;SDS011;2535;49.888;8.942;2023-09-07T05:44:40;14.90;;;2.43;;
5032;SDS011;2535;49.888;8.942;2023-09-07T05:47:06;13.17;;;2.63;;
5032;SDS011;2535;49.888;8.942;2023-09-07T05:49:32;13.57;;;2.33;;
5032;SDS011;2535;49.888;8.942;2023-09-07T05:51:58;13.73;;;2.60;;
5032;SDS011;2535;49.888;8.942;2023-09-07T05:54:24;19.77;;;3.37;;
5032;SDS011;2535;49.888;8.942;2023-09-07T05:56:50;12.33;;;1.90;;
5032;SDS011;2535;49.888;8.942;2023-09-07T05:59:16;12.80;;;2.27;;
5032;SDS011;2535;49.888;8.942;2023-09-07T06:01:42;12.93;;;2.40;;
5032;SDS011;2535;49.888;8.942;2023-09-07T06:04:08;13.00;;;2.40;;
5032;SDS011;2535;49.888;8.942;2023-09-07T06:06:34;14.93;;;2.30;;
5032;SDS011;2535;49.888;8.942;2023-09-07T06:09:00;13.60;;;2.20;;
5032;SDS011;2535;49.888;8.942;2023-09-07T06:11:26;13.20;;;2.50;;
5032;SDS011;2535;49.888;8.942;2023-09-07T06:13:52;12.00;;;1.70;;
5032;SDS011;2535;49.888;8.942;2023-09-07T06:16:17;12.93;;;2.00;;
5032;SDS011;2535;49.888;8.942;2023-09-07T06:18:44;14.13;;;2.97;;
5032;SDS011;2535;49.888;8.942;2023-09-07T06:21:09;14.30;;;2.80;;
5032;SDS011;2535;49.888;8.942;2023-09-07T06:23:35;14.80;;;3.00;;
5032;SDS011;2535;49.888;8.942;2023-09-07T06:26:01;12.97;;;2.13;;
5032;SDS011;2535;49.888;8.942;2023-09-07T06:28:28;13.00;;;2.50;;
5032;SDS011;2535;49.888;8.942;2023-09-07T06:30:54;13.53;;;2.50;;
5032;SDS011;2535;49.888;8.942;2023-09-07T06:33:19;13.00;;;2.67;;
5032;SDS011;2535;49.888;8.942;2023-09-07T06:35:45;12.57;;;2.00;;
5032;SDS011;2535;49.888;8.942;2023-09-07T06:38:11;13.63;;;2.80;;
5032;SDS011;2535;49.888;8.942;2023-09-07T06:40:37;12.33;;;1.90;;
5032;SDS011;2535;49.888;8.942;2023-09-07T06:43:03;13.87;;;2.53;;
5032;SDS011;2535;49.888;8.942;2023-09-07T06:45:33;12.03;;;2.17;;
5032;SDS011;2535;49.888;8.942;2023-09-07T06:47:59;14.83;;;2.50;;
5032;SDS011;2535;49.888;8.942;2023-09-07T06:50:25;13.53;;;2.87;;
5032;SDS011;2535;49.888;8.942;2023-09-07T06:52:51;13.33;;;2.43;;
5032;SDS011;2535;49.888;8.942;2023-09-07T06:55:17;12.80;;;2.00;;
5032;SDS011;2535;49.888;8.942;2023-09-07T06:57:43;13.37;;;2.40;;
5032;SDS011;2535;49.888;8.942;2023-09-07T07:00:09;13.00;;;2.37;;
5032;SDS011;2535;49.888;8.942;2023-09-07T07:02:36;13.47;;;2.37;;
5032;SDS011;2535;49.888;8.942;2023-09-07T07:05:03;12.30;;;2.13;;
5032;SDS011;2535;49.888;8.942;2023-09-07T07:07:29;11.77;;;2.17;;
5032;SDS011;2535;49.888;8.942;2023-09-07T07:09:55;12.40;;;2.40;;
5032;SDS011;2535;49.888;8.942;2023-09-07T07:12:21;17.73;;;2.47;;
5032;SDS011;2535;49.888;8.942;2023-09-07T07:14:47;13.57;;;2.50;;
5032;SDS011;2535;49.888;8.942;2023-09-07T07:17:13;12.37;;;1.93;;
5032;SDS011;2535;49.888;8.942;2023-09-07T07:19:42;12.47;;;2.50;;
5032;SDS011;2535;49.888;8.942;2023-09-07T07:22:08;16.20;;;3.10;;
5032;SDS011;2535;49.888;8.942;2023-09-07T07:24:34;11.97;;;1.80;;
5032;SDS011;2535;49.888;8.942;2023-09-07T07:27:00;12.70;;;2.10;;
5032;SDS011;2535;49.888;8.942;2023-09-07T07:29:26;15.37;;;2.60;;
5032;SDS011;2535;49.888;8.942;2023-09-07T07:31:51;13.50;;;2.70;;
5032;SDS011;2535;49.888;8.942;2023-09-07T07:34:17;12.27;;;2.17;;
5032;SDS011;2535;49.888;8.942;2023-09-07T07:36:43;11.87;;;1.73;;
5032;SDS011;2535;49.888;8.942;2023-09-07T07:39:09;12.17;;;1.80;;
5032;SDS011;2535;49.888;8.942;2023-09-07T07:41:35;13.00;;;2.40;;
5032;SDS011;2535;49.888;8.942;2023-09-07T07:44:02;15.30;;;2.37;;
5032;SDS011;2535;49.888;8.942;2023-09-07T07:46:28;12.10;;;2.17;;
5032;SDS011;2535;49.888;8.942;2023-09-07T07:48:54;12.53;;;2.17;;
5032;SDS011;2535;49.888;8.942;2023-09-07T07:51:20;13.00;;;2.43;;
5032;SDS011;2535;49.888;8.942;2023-09-07T07:53:46;13.07;;;2.27;;
5032;SDS011;2535;49.888;8.942;2023-09-07T07:56:18;12.70;;;2.03;;
5032;SDS011;2535;49.888;8.942;2023-09-07T07:58:44;12.83;;;2.43;;
5032;SDS011;2535;49.888;8.942;2023-09-07T08:01:16;13.00;;;2.13;;
5032;SDS011;2535;49.888;8.942;2023-09-07T08:03:42;13.63;;;2.07;;
5032;SDS011;2535;49.888;8.942;2023-09-07T08:06:08;11.23;;;2.10;;
5032;SDS011;2535;49.888;8.942;2023-09-07T08:08:35;14.10;;;3.03;;
5032;SDS011;2535;49.888;8.942;2023-09-07T08:11:01;12.00;;;2.30;;
5032;SDS011;2535;49.888;8.942;2023-09-07T08:13:33;11.40;;;1.97;;
5032;SDS011;2535;49.888;8.942;2023-09-07T08:16:00;13.83;;;3.20;;
5032;SDS011;2535;49.888;8.942;2023-09-07T08:18:26;13.47;;;2.60;;
5032;SDS011;2535;49.888;8.942;2023-09-07T08:20:53;21.40;;;2.80;;
5032;SDS011;2535;49.888;8.942;2023-09-07T08:23:20;11.97;;;2.20;;
5032;SDS011;2535;49.888;8.942;2023-09-07T08:25:46;12.13;;;1.97;;
5032;SDS011;2535;49.888;8.942;2023-09-07T08:28:12;12.33;;;2.23;;
5032;SDS011;2535;49.888;8.942;2023-09-07T08:30:38;13.57;;;2.60;;
5032;SDS011;2535;49.888;8.942;2023-09-07T08:33:04;11.77;;;2.70;;
5032;SDS011;2535;49.888;8.942;2023-09-07T08:35:31;12.43;;;2.40;;
5032;SDS011;2535;49.888;8.942;2023-09-07T08:38:00;11.83;;;2.30;;
5032;SDS011;2535;49.888;8.942;2023-09-07T08:40:29;12.17;;;2.47;;
5032;SDS011;2535;49.888;8.942;2023-09-07T08:42:55;11.40;;;1.97;;
5032;SDS011;2535;49.888;8.942;2023-09-07T08:45:22;11.67;;;2.17;;
5032;SDS011;2535;49.888;8.942;2023-09-07T08:47:51;11.70;;;2.40;;
5032;SDS011;2535;49.888;8.942;2023-09-07T08:50:18;12.27;;;2.03;;
5032;SDS011;2535;49.888;8.942;2023-09-07T08:52:44;14.10;;;2.57;;
5032;SDS011;2535;49.888;8.942;2023-09-07T08:55:12;10.70;;;1.77;;
5032;SDS011;2535;49.888;8.942;2023-09-07T08:57:38;11.00;;;1.90;;
5032;SDS011;2535;49.888;8.942;2023-09-07T09:00:04;12.73;;;2.40;;
5032;SDS011;2535;49.888;8.942;2023-09-07T09:02:38;13.40;;;2.67;;
5032;SDS011;2535;49.888;8.942;2023-09-07T09:05:04;13.37;;;2.37;;
5032;SDS011;2535;49.888;8.942;2023-09-07T09:07:30;11.80;;;1.83;;
5032;SDS011;2535;49.888;8.942;2023-09-07T09:10:06;14.93;;;2.73;;
5032;SDS011;2535;49.888;8.942;2023-09-07T09:12:32;11.30;;;2.23;;
5032;SDS011;2535;49.888;8.942;2023-09-07T09:14:58;13.10;;;2.40;;
5032;SDS011;2535;49.888;8.942;2023-09-07T09:17:25;11.80;;;2.17;;
5032;SDS011;2535;49.888;8.942;2023-09-07T09:19:51;10.67;;;1.87;;
5032;SDS011;2535;49.888;8.942;2023-09-07T09:22:17;14.33;;;3.10;;
5032;SDS011;2535;49.888;8.942;2023-09-07T09:24:45;12.23;;;2.20;;
5032;SDS011;2535;49.888;8.942;2023-09-07T09:27:13;10.80;;;1.87;;
5032;SDS011;2535;49.888;8.942;2023-09-07T09:29:39;10.43;;;2.00;;
5032;SDS011;2535;49.888;8.942;2023-09-07T09:32:08;10.90;;;2.20;;
5032;SDS011;2535;49.888;8.942;2023-09-07T09:34:35;13.17;;;2.73;;
5032;SDS011;2535;49.888;8.942;2023-09-07T09:37:01;12.10;;;2.47;;
5032;SDS011;2535;49.888;8.942;2023-09-07T09:39:28;12.43;;;2.10;;
5032;SDS011;2535;49.888;8.942;2023-09-07T09:41:54;11.07;;;2.10;;
5032;SDS011;2535;49.888;8.942;2023-09-07T09:44:21;10.60;;;1.90;;
5032;SDS011;2535;49.888;8.942;2023-09-07T09:46:50;11.53;;;2.43;;
5032;SDS011;2535;49.888;8.942;2023-09-07T09:49:16;10.70;;;1.83;;
5032;SDS011;2535;49.888;8.942;2023-09-07T09:51:43;11.73;;;2.30;;
5032;SDS011;2535;49.888;8.942;2023-09-07T09:54:11;10.93;;;2.20;;
5032;SDS011;2535;49.888;8.942;2023-09-07T09:56:38;10.63;;;2.30;;
5032;SDS011;2535;49.888;8.942;2023-09-07T09:59:04;11.60;;;2.50;;
5032;SDS011;2535;49.888;8.942;2023-09-07T10:01:30;11.53;;;2.20;;
5032;SDS011;2535;49.888;8.942;2023-09-07T10:04:02;12.17;;;2.30;;
5032;SDS011;2535;49.888;8.942;2023-09-07T10:06:29;10.80;;;2.43;;
5032;SDS011;2535;49.888;8.942;2023-09-07T10:11:30;10.50;;;1.77;;
5032;SDS011;2535;49.888;8.942;2023-09-07T10:13:57;10.40;;;1.90;;
5032;SDS011;2535;49.888;8.942;2023-09-07T10:16:23;11.57;;;1.80;;
5032;SDS011;2535;49.888;8.942;2023-09-07T10:18:50;11.13;;;2.17;;
5032;SDS011;2535;49.888;8.942;2023-09-07T10:21:16;11.60;;;2.37;;
5032;SDS011;2535;49.888;8.942;2023-09-07T10:23:42;10.20;;;1.90;;
5032;SDS011;2535;49.888;8.942;2023-09-07T10:26:12;10.63;;;2.00;;
5032;SDS011;2535;49.888;8.942;2023-09-07T10:28:38;10.70;;;2.03;;
5032;SDS011;2535;49.888;8.942;2023-09-07T10:33:36;11.43;;;1.90;;
5032;SDS011;2535;49.888;8.942;2023-09-07T10:36:04;10.57;;;1.90;;
5032;SDS011;2535;49.888;8.942;2023-09-07T10:38:31;13.33;;;1.77;;
5032;SDS011;2535;49.888;8.942;2023-09-07T10:40:57;10.60;;;2.10;;
5032;SDS011;2535;49.888;8.942;2023-09-07T10:43:24;9.60;;;1.63;;
5032;SDS011;2535;49.888;8.942;2023-09-07T10:45:50;10.50;;;1.87;;
5032;SDS011;2535;49.888;8.942;2023-09-07T10:48:16;10.63;;;1.93;;
5032;SDS011;2535;49.888;8.942;2023-09-07T10:50:43;11.00;;;1.83;;
5032;SDS011;2535;49.888;8.942;2023-09-07T10:53:09;11.90;;;2.00;;
5032;SDS011;2535;49.888;8.942;2023-09-07T10:55:38;11.43;;;2.10;;
5032;SDS011;2535;49.888;8.942;2023-09-07T10:58:05;9.43;;;1.63;;
5032;SDS011;2535;49.888;8.942;2023-09-07T11:00:30;10.60;;;1.83;;
5032;SDS011;2535;49.888;8.942;2023-09-07T11:02:56;11.10;;;2.13;;
5032;SDS011;2535;49.888;8.942;2023-09-07T11:05:22;10.03;;;1.70;;
5032;SDS011;2535;49.888;8.942;2023-09-07T11:07:48;11.83;;;2.00;;
5032;SDS011;2535;49.888;8.942;2023-09-07T11:10:14;10.17;;;1.70;;
5032;SDS011;2535;49.888;8.942;2023-09-07T11:12:40;11.77;;;2.30;;
5032;SDS011;2535;49.888;8.942;2023-09-07T11:15:09;9.87;;;1.90;;
5032;SDS011;2535;49.888;8.942;2023-09-07T11:17:38;9.73;;;1.70;;
5032;SDS011;2535;49.888;8.942;2023-09-07T11:20:05;12.57;;;1.70;;
5032;SDS011;2535;49.888;8.942;2023-09-07T11:22:32;10.40;;;2.00;;
5032;SDS011;2535;49.888;8.942;2023-09-07T11:24:59;9.60;;;1.93;;
5032;SDS011;2535;49.888;8.942;2023-09-07T11:27:28;12.70;;;1.77;;
5032;SDS011;2535;49.888;8.942;2023-09-07T11:29:55;11.43;;;1.77;;
5032;SDS011;2535;49.888;8.942;2023-09-07T11:32:21;10.37;;;1.97;;
5032;SDS011;2535;49.888;8.942;2023-09-07T11:34:51;10.50;;;1.57;;
5032;SDS011;2535;49.888;8.942;2023-09-07T11:37:18;10.67;;;2.10;;
5032;SDS011;2535;49.888;8.942;2023-09-07T11:39:44;9.53;;;1.60;;
5032;SDS011;2535;49.888;8.942;2023-09-07T11:42:10;9.07;;;1.60;;
5032;SDS011;2535;49.888;8.942;2023-09-07T11:44:36;9.30;;;1.60;;
5032;SDS011;2535;49.888;8.942;2023-09-07T11:47:02;9.40;;;1.63;;
5032;SDS011;2535;49.888;8.942;2023-09-07T11:49:29;8.63;;;1.27;;
5032;SDS011;2535;49.888;8.942;2023-09-07T11:51:56;8.57;;;1.27;;
5032;SDS011;2535;49.888;8.942;2023-09-07T11:54:22;9.90;;;1.93;;
5032;SDS011;2535;49.888;8.942;2023-09-07T11:56:48;10.27;;;2.10;;
5032;SDS011;2535;49.888;8.942;2023-09-07T11:59:14;8.97;;;1.37;;
5032;SDS011;2535;49.888;8.942;2023-09-07T12:01:43;9.77;;;1.53;;
5032;SDS011;2535;49.888;8.942;2023-09-07T12:04:09;9.20;;;1.60;;
5032;SDS011;2535;49.888;8.942;2023-09-07T12:06:35;8.97;;;1.50;;
5032;SDS011;2535;49.888;8.942;2023-09-07T12:09:05;9.20;;;1.40;;
5032;SDS011;2535;49.888;8.942;2023-09-07T12:11:32;9.67;;;1.80;;
5032;SDS011;2535;49.888;8.942;2023-09-07T12:13:58;10.20;;;1.73;;
5032;SDS011;2535;49.888;8.942;2023-09-07T12:16:25;9.50;;;1.73;;
5032;SDS011;2535;49.888;8.942;2023-09-07T12:18:51;10.63;;;1.47;;
5032;SDS011;2535;49.888;8.942;2023-09-07T12:21:17;10.10;;;2.20;;
5032;SDS011;2535;49.888;8.942;2023-09-07T12:23:43;12.90;;;2.20;;
5032;SDS011;2535;49.888;8.942;2023-09-07T12:26:09;9.23;;;1.50;;
5032;SDS011;2535;49.888;8.942;2023-09-07T12:28:35;11.57;;;2.10;;
5032;SDS011;2535;49.888;8.942;2023-09-07T12:31:01;10.67;;;1.97;;
5032;SDS011;2535;49.888;8.942;2023-09-07T12:33:27;8.60;;;1.67;;
5032;SDS011;2535;49.888;8.942;2023-09-07T12:35:55;8.90;;;1.77;;
5032;SDS011;2535;49.888;8.942;2023-09-07T12:38:21;9.20;;;1.70;;
5032;SDS011;2535;49.888;8.942;2023-09-07T12:40:52;9.47;;;1.83;;
5032;SDS011;2535;49.888;8.942;2023-09-07T12:43:18;8.70;;;1.47;;
5032;SDS011;2535;49.888;8.942;2023-09-07T12:45:45;8.30;;;1.50;;
5032;SDS011;2535;49.888;8.942;2023-09-07T12:48:11;9.07;;;1.40;;
5032;SDS011;2535;49.888;8.942;2023-09-07T12:50:37;8.20;;;1.33;;
5032;SDS011;2535;49.888;8.942;2023-09-07T12:53:04;12.90;;;1.90;;
5032;SDS011;2535;49.888;8.942;2023-09-07T12:55:30;8.60;;;1.43;;
5032;SDS011;2535;49.888;8.942;2023-09-07T12:57:56;11.37;;;1.97;;
5032;SDS011;2535;49.888;8.942;2023-09-07T13:00:22;9.50;;;1.80;;
5032;SDS011;2535;49.888;8.942;2023-09-07T13:02:48;9.17;;;1.53;;
5032;SDS011;2535;49.888;8.942;2023-09-07T13:05:14;9.73;;;1.70;;
5032;SDS011;2535;49.888;8.942;2023-09-07T13:07:40;7.97;;;1.20;;
5032;SDS011;2535;49.888;8.942;2023-09-07T13:10:08;12.20;;;1.60;;
5032;SDS011;2535;49.888;8.942;2023-09-07T13:12:35;9.37;;;1.43;;
5032;SDS011;2535;49.888;8.942;2023-09-07T13:15:02;9.50;;;1.67;;
5032;SDS011;2535;49.888;8.942;2023-09-07T13:17:27;9.30;;;1.57;;
5032;SDS011;2535;49.888;8.942;2023-09-07T13:19:53;8.83;;;1.47;;
5032;SDS011;2535;49.888;8.942;2023-09-07T13:22:19;8.47;;;1.43;;
5032;SDS011;2535;49.888;8.942;2023-09-07T13:24:45;8.73;;;1.53;;
5032;SDS011;2535;49.888;8.942;2023-09-07T13:27:11;8.10;;;1.33;;
5032;SDS011;2535;49.888;8.942;2023-09-07T13:29:37;17.20;;;2.07;;
5032;SDS011;2535;49.888;8.942;2023-09-07T13:32:03;8.70;;;1.50;;
5032;SDS011;2535;49.888;8.942;2023-09-07T13:34:29;7.87;;;1.37;;
5032;SDS011;2535;49.888;8.942;2023-09-07T13:36:55;12.67;;;1.90;;
5032;SDS011;2535;49.888;8.942;2023-09-07T13:39:21;8.47;;;1.47;;
5032;SDS011;2535;49.888;8.942;2023-09-07T13:41:47;9.60;;;1.43;;
5032;SDS011;2535;49.888;8.942;2023-09-07T13:44:14;8.47;;;1.53;;
5032;SDS011;2535;49.888;8.942;2023-09-07T13:46:40;8.53;;;1.60;;
5032;SDS011;2535;49.888;8.942;2023-09-07T13:49:06;9.20;;;1.40;;
5032;SDS011;2535;49.888;8.942;2023-09-07T13:51:32;7.63;;;1.33;;
5032;SDS011;2535;49.888;8.942;2023-09-07T13:54:03;8.00;;;1.57;;
5032;SDS011;2535;49.888;8.942;2023-09-07T13:56:29;8.27;;;1.47;;
5032;SDS011;2535;49.888;8.942;2023-09-07T13:58:55;8.17;;;1.77;;
5032;SDS011;2535;49.888;8.942;2023-09-07T14:01:21;8.47;;;1.67;;
5032;SDS011;2535;49.888;8.942;2023-09-07T14:03:48;8.67;;;1.70;;
5032;SDS011;2535;49.888;8.942;2023-09-07T14:06:14;6.90;;;1.00;;
5032;SDS011;2535;49.888;8.942;2023-09-07T14:08:40;7.73;;;1.67;;
5032;SDS011;2535;49.888;8.942;2023-09-07T14:11:07;7.73;;;1.60;;
5032;SDS011;2535;49.888;8.942;2023-09-07T14:13:32;7.27;;;1.20;;
5032;SDS011;2535;49.888;8.942;2023-09-07T14:16:00;6.80;;;1.53;;
5032;SDS011;2535;49.888;8.942;2023-09-07T14:18:26;6.30;;;1.10;;
5032;SDS011;2535;49.888;8.942;2023-09-07T14:20:52;6.20;;;1.10;;
5032;SDS011;2535;49.888;8.942;2023-09-07T14:23:18;5.80;;;1.00;;
5032;SDS011;2535;49.888;8.942;2023-09-07T14:25:46;5.97;;;1.10;;
5032;SDS011;2535;49.888;8.942;2023-09-07T14:28:12;5.20;;;1.00;;
5032;SDS011;2535;49.888;8.942;2023-09-07T14:30:39;5.10;;;0.70;;
5032;SDS011;2535;49.888;8.942;2023-09-07T14:33:05;5.93;;;1.20;;
5032;SDS011;2535;49.888;8.942;2023-09-07T14:35:31;4.70;;;1.00;;
5032;SDS011;2535;49.888;8.942;2023-09-07T14:37:57;5.23;;;1.00;;
5032;SDS011;2535;49.888;8.942;2023-09-07T14:40:23;4.80;;;1.00;;
5032;SDS011;2535;49.888;8.942;2023-09-07T14:42:49;4.90;;;1.00;;
5032;SDS011;2535;49.888;8.942;2023-09-07T14:45:16;5.13;;;0.93;;
5032;SDS011;2535;49.888;8.942;2023-09-07T14:47:42;5.50;;;1.33;;
5032;SDS011;2535;49.888;8.942;2023-09-07T14:50:08;5.47;;;1.30;;
5032;SDS011;2535;49.888;8.942;2023-09-07T14:52:34;6.33;;;1.17;;
5032;SDS011;2535;49.888;8.942;2023-09-07T14:55:05;5.43;;;1.10;;
5032;SDS011;2535;49.888;8.942;2023-09-07T14:57:31;6.10;;;1.13;;
5032;SDS011;2535;49.888;8.942;2023-09-07T14:59:57;5.90;;;1.10;;
5032;SDS011;2535;49.888;8.942;2023-09-07T15:02:23;8.10;;;1.33;;
5032;SDS011;2535;49.888;8.942;2023-09-07T15:04:49;6.10;;;1.20;;